Time;durP1;ratioP1;P1;durP2;ratioP2;P2;SDS_P1;SDS_P2;PMS_P1;PMS_P2;Temp;Humidity;BMP_temperature;BMP_pressure;BME280_temperature;BME280_humidity;BME280_pressure;Samples;Min_cycle;Max_cycle;Signal;HPM_P1;HPM_P2
2024/02/09 00:00:48;;;;;;;6.70;2.15;;;;;;;13.56;68.78;94965.16;4899848;29;20054;-82
2024/02/09 00:03:13;;;;;;;5.32;2.28;;;;;;;13.43;68.81;94974.75;4877497;28;20040;-84
2024/02/09 00:05:39;;;;;;;4.63;1.88;;;;;;;13.00;70.11;94957.44;4899160;28;20056;-87
2024/02/09 00:08:05;;;;;;;6.00;2.10;;;;;;;13.13;70.00;94972.13;4877567;28;20028;-84
2024/02/09 00:10:36;;;;;;;6.50;1.83;;;;;;;13.02;70.30;94965.72;4912429;28;20032;-85
2024/02/09 00:13:04;;;;;;;4.88;2.30;;;;;;;13.39;69.27;94958.19;4914684;28;20556;-87
2024/02/09 00:15:31;;;;;;;4.40;1.73;;;;;;;13.20;69.06;94969.78;4899295;28;20068;-84
2024/02/09 00:17:56;;;;;;;6.18;1.95;;;;;;;13.18;69.68;94958.88;4898400;28;20488;-84
2024/02/09 00:20:23;;;;;;;5.88;1.70;;;;;;;13.32;68.77;94952.69;4908459;29;20552;-85
2024/02/09 00:22:49;;;;;;;5.45;1.90;;;;;;;13.32;69.02;94968.38;4949419;28;20051;-84
2024/02/09 00:25:15;;;;;;;3.78;1.67;;;;;;;13.20;69.56;94961.94;4889773;29;20122;-87
2024/02/09 00:27:40;;;;;;;4.13;1.55;;;;;;;13.02;69.30;94939.59;4884100;28;20489;-87
2024/02/09 00:30:07;;;;;;;4.15;2.05;;;;;;;13.04;69.42;94968.75;4971016;28;20123;-82
2024/02/09 00:32:33;;;;;;;4.32;1.80;;;;;;;13.17;69.38;94969.66;4910036;28;20038;-84
2024/02/09 00:34:59;;;;;;;5.68;2.13;;;;;;;13.08;69.74;94965.22;4870904;28;20142;-82
2024/02/09 00:37:26;;;;;;;3.20;1.73;;;;;;;13.17;68.92;94962.56;4904710;28;20575;-82
2024/02/09 00:39:52;;;;;;;5.72;2.45;;;;;;;13.16;69.09;94974.13;4897775;29;20396;-80
2024/02/09 00:42:18;;;;;;;3.80;1.55;;;;;;;13.06;70.67;94977.84;4900174;29;20048;-85
2024/02/09 00:44:44;;;;;;;4.05;2.00;;;;;;;12.98;69.71;94964.81;4913832;28;20094;-86
2024/02/09 00:47:09;;;;;;;5.47;2.08;;;;;;;13.21;69.34;94968.72;4892119;28;20119;-86
2024/02/09 00:49:35;;;;;;;3.03;1.80;;;;;;;13.09;70.08;94952.91;4874414;29;20087;-86
2024/02/09 00:52:01;;;;;;;5.43;1.95;;;;;;;13.00;70.41;94952.97;4884174;29;20032;-89
2024/02/09 00:54:27;;;;;;;3.38;2.08;;;;;;;13.06;69.69;94949.09;4893272;29;20425;-86
2024/02/09 00:56:53;;;;;;;3.28;1.85;;;;;;;13.02;70.42;94934.34;4889144;28;20063;-85
2024/02/09 00:59:18;;;;;;;2.03;1.80;;;;;;;12.99;70.49;94955.88;4889279;29;20074;-85
2024/02/09 01:01:47;;;;;;;3.33;1.90;;;;;;;12.83;71.66;94942.59;4886635;28;20032;-83
2024/02/09 01:04:14;;;;;;;5.10;2.15;;;;;;;12.72;71.46;94942.94;4887529;29;20060;-83
2024/02/09 01:06:42;;;;;;;4.72;1.90;;;;;;;12.86;70.61;94942.72;4916622;28;20099;-82
2024/02/09 01:09:08;;;;;;;2.90;1.55;;;;;;;12.91;70.37;94937.31;4887921;29;20036;-84
2024/02/09 01:11:34;;;;;;;3.05;1.75;;;;;;;12.98;69.73;94923.03;4894020;29;20404;-84
2024/02/09 02:46:30;;;;;;;2.47;1.30;;;;;;;12.89;70.81;94832.41;4888917;28;20028;-84
2024/02/09 03:05:24;;;;;;;4.57;1.48;;;;;;;12.80;71.68;94810.03;4885279;29;20036;-80
2024/02/09 03:07:50;;;;;;;2.45;1.13;;;;;;;12.78;71.38;94801.75;4886719;28;20051;-83
2024/02/09 03:10:16;;;;;;;6.40;1.38;;;;;;;12.80;71.26;94810.81;4940942;28;20143;-79
2024/02/09 03:12:41;;;;;;;3.00;1.65;;;;;;;12.91;70.93;94803.38;4908864;29;20064;-79
2024/02/09 03:15:11;;;;;;;4.97;1.50;;;;;;;12.90;71.93;94805.22;4894002;29;20539;-79
2024/02/09 03:17:40;;;;;;;4.70;1.83;;;;;;;13.04;71.48;94791.91;4890048;29;20492;-79
2024/02/09 03:20:07;;;;;;;4.30;1.73;;;;;;;12.98;71.05;94792.41;4883051;29;20489;-80
2024/02/09 03:22:33;;;;;;;6.28;1.80;;;;;;;12.90;70.56;94780.94;4890272;29;20512;-79
2024/02/09 03:25:01;;;;;;;2.40;1.15;;;;;;;13.09;70.69;94790.94;4896490;29;20039;-79
2024/02/09 03:27:39;;;;;;;6.95;1.70;;;;;;;13.01;70.81;94786.56;4891058;29;20449;-79
2024/02/09 03:30:05;;;;;;;3.55;1.70;;;;;;;12.89;70.79;94795.84;4889816;29;20093;-79
2024/02/09 03:32:35;;;;;;;3.92;1.88;;;;;;;12.97;70.95;94785.66;4900506;29;20036;-79
2024/02/09 03:35:02;;;;;;;2.97;1.60;;;;;;;13.01;71.01;94794.41;4882930;29;20090;-79
2024/02/09 03:37:30;;;;;;;2.67;1.27;;;;;;;13.00;70.40;94796.22;4901328;29;20557;-79
2024/02/09 03:39:56;;;;;;;6.30;2.45;;;;;;;13.16;69.92;94798.28;4881897;29;20324;-79
2024/02/09 03:42:23;;;;;;;4.95;1.65;;;;;;;12.93;71.17;94796.72;4905955;29;20115;-80
2024/02/09 03:44:54;;;;;;;4.10;1.70;;;;;;;13.00;70.95;94804.06;4905411;29;20682;-80
2024/02/09 03:47:24;;;;;;;4.40;1.60;;;;;;;12.87;70.98;94799.88;4893594;29;20071;-80
2024/02/09 03:49:51;;;;;;;4.18;1.60;;;;;;;12.83;72.34;94793.72;4890482;29;20447;-80
2024/02/09 03:52:19;;;;;;;4.47;2.00;;;;;;;13.07;71.07;94800.94;4908093;28;20040;-79
2024/02/09 03:54:45;;;;;;;3.65;1.83;;;;;;;12.89;71.99;94795.84;4902525;29;20048;-79
2024/02/09 03:57:10;;;;;;;5.88;2.00;;;;;;;12.95;71.24;94785.22;4931238;28;20062;-80
2024/02/09 03:59:36;;;;;;;6.60;2.92;;;;;;;13.14;70.75;94777.69;4910085;29;20028;-79
2024/02/09 04:02:04;;;;;;;5.15;2.15;;;;;;;12.99;71.98;94767.81;4886931;29;20123;-79
2024/02/09 04:04:30;;;;;;;5.55;2.05;;;;;;;13.11;71.22;94778.34;4886377;28;20083;-79
2024/02/09 04:06:55;;;;;;;5.55;2.15;;;;;;;13.18;70.21;94775.97;4908014;29;20040;-80
2024/02/09 04:09:21;;;;;;;6.00;2.08;;;;;;;13.10;70.24;94784.66;4891594;29;20036;-81
2024/02/09 04:11:46;;;;;;;5.07;2.25;;;;;;;13.14;70.41;94771.69;4909715;29;20032;-79
2024/02/09 04:14:13;;;;;;;6.45;2.40;;;;;;;13.08;70.52;94778.97;4898388;29;20068;-79
2024/02/09 04:16:38;;;;;;;4.45;2.25;;;;;;;12.90;71.42;94778.31;4887729;29;20049;-82
2024/02/09 04:19:03;;;;;;;7.10;3.20;;;;;;;13.21;70.57;94780.56;4875635;29;20037;-79
2024/02/09 04:21:30;;;;;;;6.88;3.70;;;;;;;13.13;71.26;94781.41;4891219;29;20040;-80
2024/02/09 04:23:55;;;;;;;10.00;4.95;;;;;;;13.09;70.82;94773.44;4891371;29;20074;-81
2024/02/09 04:26:21;;;;;;;8.93;4.60;;;;;;;13.00;70.97;94775.34;4929462;29;20040;-82
2024/02/09 04:28:46;;;;;;;11.05;5.50;;;;;;;12.64;73.51;94773.28;4902352;29;20112;-81
2024/02/09 04:31:11;;;;;;;7.65;5.60;;;;;;;12.95;72.31;94756.47;4896761;29;20404;-80
2024/02/09 04:33:37;;;;;;;7.85;5.25;;;;;;;13.10;72.07;94774.94;4897034;29;20047;-79
2024/02/09 04:36:02;;;;;;;9.70;6.20;;;;;;;13.10;71.73;94753.28;4907639;29;20036;-80
2024/02/09 04:38:28;;;;;;;11.35;6.40;;;;;;;12.97;72.06;94769.97;4895384;28;20047;-80
2024/02/09 04:40:56;;;;;;;11.13;7.00;;;;;;;12.66;73.98;94773.72;4896987;29;20364;-82
2024/02/09 04:43:21;;;;;;;9.75;6.57;;;;;;;12.95;72.13;94767.69;4888500;28;20039;-80
2024/02/09 04:45:46;;;;;;;9.80;6.63;;;;;;;13.25;71.63;94763.16;4900021;29;20040;-81
2024/02/09 04:48:12;;;;;;;12.13;6.80;;;;;;;13.38;70.50;94776.31;4869252;29;20036;-80
2024/02/09 04:50:38;;;;;;;9.40;6.72;;;;;;;13.26;71.62;94769.94;4905335;29;20051;-81
2024/02/09 04:53:04;;;;;;;11.77;7.32;;;;;;;13.29;70.60;94769.25;4972851;28;20036;-80
2024/02/09 04:55:29;;;;;;;11.23;6.72;;;;;;;13.33;70.87;94760.81;4891929;29;20032;-80
2024/02/09 04:57:54;;;;;;;13.68;7.20;;;;;;;13.25;71.66;94763.16;4892530;28;20113;-80
2024/02/09 05:00:20;;;;;;;11.13;6.88;;;;;;;13.00;72.19;94757.06;4896707;29;20488;-81
2024/02/09 05:02:46;;;;;;;10.25;6.90;;;;;;;13.25;71.18;94750.09;4878347;29;20035;-79
2024/02/09 05:05:12;;;;;;;12.15;8.18;;;;;;;13.04;71.62;94738.88;4897065;29;20492;-82
2024/02/09 05:07:37;;;;;;;11.95;6.68;;;;;;;12.94;72.60;94747.91;4880759;29;20047;-80
2024/02/09 05:10:03;;;;;;;13.35;8.15;;;;;;;12.89;72.44;94742.84;4890800;28;20233;-80
2024/02/09 05:12:31;;;;;;;11.48;7.00;;;;;;;13.13;71.58;94754.50;4904625;29;20135;-79
2024/02/09 05:14:59;;;;;;;12.30;7.57;;;;;;;13.27;71.06;94753.16;4894543;29;20534;-79
2024/02/09 05:17:25;;;;;;;10.20;6.65;;;;;;;13.05;71.41;94725.50;4904497;28;20040;-80
2024/02/09 05:19:57;;;;;;;12.32;8.40;;;;;;;13.34;71.35;94739.59;4888596;29;20036;-78
2024/02/09 05:22:24;;;;;;;10.55;7.97;;;;;;;13.33;70.52;94734.69;4907103;29;20136;-82
2024/02/09 05:24:49;;;;;;;13.40;7.78;;;;;;;13.32;70.83;94725.34;4890275;29;20036;-79
2024/02/09 05:27:14;;;;;;;13.15;7.40;;;;;;;13.10;72.39;94727.16;5000727;28;20103;-81
2024/02/09 05:29:40;;;;;;;11.48;6.72;;;;;;;13.10;72.10;94740.22;4916923;29;20039;-78
2024/02/09 05:32:05;;;;;;;13.50;7.32;;;;;;;12.96;73.20;94737.13;4887663;29;20044;-80
2024/02/09 05:34:31;;;;;;;12.07;7.85;;;;;;;13.13;71.99;94747.44;4901856;29;20106;-78
2024/02/09 05:36:57;;;;;;;11.20;7.45;;;;;;;13.08;72.46;94739.78;4873407;29;20126;-79
2024/02/09 05:39:22;;;;;;;13.40;7.40;;;;;;;12.89;72.60;94730.56;4908556;29;20032;-79
2024/02/09 05:41:48;;;;;;;12.63;7.30;;;;;;;13.00;71.77;94730.16;4925330;28;20389;-80
2024/02/09 05:44:14;;;;;;;10.48;7.18;;;;;;;12.97;72.07;94730.81;4877018;29;20047;-80
2024/02/09 05:46:40;;;;;;;10.63;6.95;;;;;;;13.21;70.83;94744.00;4902741;29;20037;-80
2024/02/09 05:49:07;;;;;;;12.50;7.30;;;;;;;13.16;72.31;94735.56;4882773;29;20040;-79
2024/02/09 05:51:33;;;;;;;12.80;8.13;;;;;;;13.25;71.32;94728.44;4891910;29;20488;-80
2024/02/09 05:53:59;;;;;;;13.40;6.55;;;;;;;13.33;70.51;94734.69;4871390;28;20040;-79
2024/02/09 05:56:29;;;;;;;15.57;8.13;;;;;;;13.18;71.66;94731.56;4887584;28;20295;-80
2024/02/09 05:58:56;;;;;;;13.70;6.78;;;;;;;13.32;71.50;94739.16;4887935;29;20202;-80
2024/02/09 06:01:31;;;;;;;12.35;7.15;;;;;;;13.28;70.78;94746.84;4903319;29;20037;-81
2024/02/09 06:03:57;;;;;;;10.88;6.50;;;;;;;13.26;71.23;94735.16;4865323;29;20083;-80
2024/02/09 06:06:22;;;;;;;11.63;7.43;;;;;;;13.05;71.66;94728.13;4887798;29;20051;-81
2024/02/09 06:08:49;;;;;;;12.18;7.20;;;;;;;13.30;71.24;94730.84;4905287;29;20083;-82
2024/02/09 06:11:17;;;;;;;11.45;7.10;;;;;;;13.15;71.30;94724.34;4906142;28;20032;-79
2024/02/09 06:13:46;;;;;;;13.30;6.95;;;;;;;13.19;72.16;94730.47;4873093;29;20036;-78
2024/02/09 06:16:15;;;;;;;10.20;7.65;;;;;;;13.42;70.86;94730.91;4897634;29;20507;-79
2024/02/09 06:18:42;;;;;;;9.70;6.45;;;;;;;13.30;70.52;94721.16;4888315;29;20078;-80
2024/02/09 06:21:08;;;;;;;12.75;7.53;;;;;;;13.29;71.39;94721.47;4907180;29;20044;-81
2024/02/09 06:23:35;;;;;;;12.02;7.05;;;;;;;13.21;70.97;94720.47;4898579;29;20028;-79
2024/02/09 06:26:01;;;;;;;12.75;7.43;;;;;;;13.42;70.97;94735.38;4988752;28;20040;-78
2024/02/09 06:28:26;;;;;;;12.65;6.75;;;;;;;13.38;70.81;94742.31;4896968;28;20032;-80
2024/02/09 06:30:51;;;;;;;14.50;7.43;;;;;;;13.18;70.39;94726.34;4906241;29;20047;-78
2024/02/09 06:33:21;;;;;;;10.07;6.45;;;;;;;13.32;71.20;94727.94;4882381;29;20166;-80
2024/02/09 06:35:46;;;;;;;13.32;6.10;;;;;;;13.25;71.50;94726.56;4905652;29;20054;-79
2024/02/09 06:38:12;;;;;;;9.20;5.53;;;;;;;13.34;70.46;94723.16;4887492;29;20032;-80
2024/02/09 06:40:38;;;;;;;13.45;6.47;;;;;;;13.46;70.19;94742.25;4901447;29;20206;-79
2024/02/09 06:43:04;;;;;;;11.63;6.38;;;;;;;13.36;70.76;94736.66;4890955;29;20043;-81
2024/02/09 06:45:29;;;;;;;11.30;8.07;;;;;;;13.36;71.22;94741.88;4880536;28;20032;-78
2024/02/09 06:47:55;;;;;;;12.18;6.65;;;;;;;13.22;71.31;94724.59;4920998;29;20036;-81
2024/02/09 06:50:21;;;;;;;13.05;6.55;;;;;;;13.35;71.30;94729.91;4955832;28;20040;-78
2024/02/09 06:52:48;;;;;;;12.23;5.90;;;;;;;13.22;70.87;94722.00;4889719;29;20449;-80
2024/02/09 06:55:14;;;;;;;11.73;6.35;;;;;;;13.43;69.94;94723.81;4885898;29;20120;-77
2024/02/09 06:57:45;;;;;;;11.10;6.18;;;;;;;13.44;70.45;94709.69;4890759;28;20040;-81
2024/02/09 07:00:15;;;;;;;11.30;5.70;;;;;;;13.42;70.26;94719.69;4884213;28;20440;-79
2024/02/09 07:02:41;;;;;;;10.40;6.32;;;;;;;13.37;69.95;94717.28;4881761;29;20148;-79
2024/02/09 07:05:14;;;;;;;14.05;6.50;;;;;;;13.47;70.23;94729.97;4892895;28;20029;-80
2024/02/09 07:07:47;;;;;;;10.48;6.43;;;;;;;13.13;71.14;94717.94;4916235;28;20123;-79
2024/02/09 07:10:13;;;;;;;12.90;6.65;;;;;;;13.39;71.00;94739.41;4896156;29;20041;-79
2024/02/09 07:12:40;;;;;;;12.75;5.93;;;;;;;13.28;70.18;94715.50;4907715;28;20044;-79
2024/02/09 07:15:06;;;;;;;11.43;6.25;;;;;;;13.37;70.62;94725.88;4930386;28;20501;-78
2024/02/09 07:17:32;;;;;;;10.63;6.38;;;;;;;13.50;70.12;94731.91;4897760;28;20036;-79
2024/02/09 07:19:59;;;;;;;11.57;5.90;;;;;;;13.24;71.68;94726.91;4886611;29;20400;-78
2024/02/09 07:22:24;;;;;;;11.55;5.85;;;;;;;13.30;71.03;94731.59;4910875;29;20047;-78
2024/02/09 07:24:49;;;;;;;10.75;5.45;;;;;;;13.29;70.68;94731.91;4880855;28;20028;-78
2024/02/09 07:27:15;;;;;;;13.15;5.85;;;;;;;13.33;70.50;94729.47;4906080;28;20068;-77
2024/02/09 07:29:43;;;;;;;13.45;5.05;;;;;;;13.35;70.34;94725.44;4890638;28;20496;-79
2024/02/09 07:32:08;;;;;;;15.50;6.90;;;;;;;13.37;70.04;94725.88;4889552;29;20140;-79
2024/02/09 07:34:34;;;;;;;11.25;5.38;;;;;;;13.41;70.87;94736.47;4886198;29;20131;-79
2024/02/09 07:36:59;;;;;;;8.98;4.15;;;;;;;13.42;70.87;94738.00;4916496;29;20036;-86
2024/02/09 07:39:25;;;;;;;9.95;5.13;;;;;;;13.40;70.08;94730.47;4903279;29;20032;-86
2024/02/09 07:41:50;;;;;;;8.32;5.20;;;;;;;13.36;71.24;94741.88;4888917;28;20039;-84
2024/02/09 07:44:16;;;;;;;10.93;5.10;;;;;;;13.39;70.05;94736.03;4904978;29;20152;-85
2024/02/09 07:46:41;;;;;;;10.07;4.85;;;;;;;13.36;71.05;94723.59;4879056;28;20077;-85
2024/02/09 07:49:06;;;;;;;10.75;4.30;;;;;;;13.36;70.22;94734.81;4903250;28;20480;-87
2024/02/09 07:51:33;;;;;;;8.98;4.75;;;;;;;13.20;71.19;94734.63;4896126;29;20436;-84
2024/02/09 07:53:59;;;;;;;11.77;4.97;;;;;;;13.35;71.07;94737.72;4913568;29;20048;-86
2024/02/09 07:56:24;;;;;;;13.40;5.53;;;;;;;13.30;70.83;94721.16;4899036;28;20028;-85
2024/02/09 07:58:51;;;;;;;10.55;5.28;;;;;;;13.53;70.45;94725.28;4880651;29;20025;-85
2024/02/09 08:01:21;;;;;;;12.40;5.40;;;;;;;13.26;71.34;94725.50;4902983;29;20036;-85
2024/02/09 08:03:47;;;;;;;12.30;5.82;;;;;;;13.38;69.69;94716.94;4912207;29;20036;-86
2024/02/09 08:06:12;;;;;;;8.50;4.25;;;;;;;13.41;69.83;94726.00;4896024;28;20044;-88
2024/02/09 08:08:38;;;;;;;10.73;4.00;;;;;;;13.33;70.74;94719.75;4895182;29;20737;-86
2024/02/09 08:11:03;;;;;;;10.88;4.22;;;;;;;13.46;70.27;94717.97;4888370;28;20504;-86
2024/02/09 08:13:28;;;;;;;11.70;4.85;;;;;;;13.45;70.45;94716.41;4885782;29;20044;-83
2024/02/09 08:15:56;;;;;;;15.50;4.32;;;;;;;13.39;69.72;94721.09;4884184;28;20028;-84
2024/02/09 08:18:22;;;;;;;10.50;5.13;;;;;;;13.44;70.18;94707.81;4895781;29;20035;-84
2024/02/09 08:20:48;;;;;;;10.50;4.28;;;;;;;13.64;69.87;94716.69;4911677;29;20481;-87
2024/02/09 08:23:13;;;;;;;8.63;4.43;;;;;;;13.57;69.28;94720.91;4903862;29;20039;-88
2024/02/09 08:25:39;;;;;;;9.32;4.70;;;;;;;13.62;69.78;94718.09;4888813;29;20040;-88
2024/02/09 08:28:04;;;;;;;11.68;4.43;;;;;;;13.64;69.50;94716.69;4901781;29;20038;-84
2024/02/09 08:30:30;;;;;;;7.10;4.18;;;;;;;13.68;69.06;94714.97;4912297;29;20484;-84
2024/02/09 08:32:55;;;;;;;9.75;4.05;;;;;;;13.65;68.60;94705.13;4893278;29;20043;-85
2024/02/09 08:35:21;;;;;;;7.82;3.72;;;;;;;13.68;68.58;94714.19;4912337;28;20040;-87
2024/02/09 08:37:46;;;;;;;10.27;4.07;;;;;;;13.73;68.21;94714.00;4903510;29;20036;-86
2024/02/09 08:40:12;;;;;;;5.65;3.50;;;;;;;13.73;67.48;94705.38;4886779;29;20043;-85
2024/02/09 08:42:38;;;;;;;6.30;3.42;;;;;;;13.78;68.47;94702.56;4887703;28;20087;-85
2024/02/09 08:45:03;;;;;;;7.15;3.33;;;;;;;13.76;68.04;94717.78;4880756;29;20139;-85
2024/02/09 08:47:29;;;;;;;9.43;3.55;;;;;;;13.56;68.58;94714.19;4876011;28;20044;-82
2024/02/09 08:49:54;;;;;;;11.02;4.47;;;;;;;13.71;68.34;94708.31;4893277;28;20098;-79
2024/02/09 08:52:20;;;;;;;7.88;3.53;;;;;;;14.01;68.09;94711.50;4879491;29;20043;-80
2024/02/09 08:54:45;;;;;;;5.78;3.17;;;;;;;13.89;67.64;94708.13;4928239;29;20047;-80
2024/02/09 08:57:18;;;;;;;9.63;3.90;;;;;;;14.09;68.01;94704.66;4896430;28;20500;-79
2024/02/09 08:59:44;;;;;;;6.80;3.33;;;;;;;14.09;66.97;94706.50;4911400;29;20064;-79
2024/02/09 09:02:12;;;;;;;6.80;3.40;;;;;;;14.11;66.25;94712.19;4898681;29;20559;-78
2024/02/09 09:04:38;;;;;;;8.85;3.53;;;;;;;14.08;67.89;94707.59;4875691;28;20055;-79
2024/02/09 09:07:03;;;;;;;8.10;3.40;;;;;;;14.15;67.00;94700.72;4920310;29;20248;-79
2024/02/09 09:09:28;;;;;;;10.23;3.83;;;;;;;14.09;67.20;94690.81;4915279;29;20044;-80
2024/02/09 09:11:55;;;;;;;6.60;3.10;;;;;;;14.23;67.21;94706.94;4910981;29;20051;-79
2024/02/09 09:14:21;;;;;;;6.82;3.70;;;;;;;14.13;66.66;94702.91;4875429;28;20489;-79
2024/02/09 09:16:46;;;;;;;8.02;3.45;;;;;;;14.30;67.47;94703.78;4966792;28;20029;-78
2024/02/09 09:19:12;;;;;;;7.90;3.83;;;;;;;14.11;67.36;94704.31;4893963;29;20056;-79
2024/02/09 09:21:38;;;;;;;7.22;3.47;;;;;;;14.08;67.58;94710.19;4984836;28;20044;-78
2024/02/09 09:24:04;;;;;;;5.35;3.40;;;;;;;14.22;66.31;94700.16;4910325;29;20532;-79
2024/02/09 09:26:30;;;;;;;8.50;3.30;;;;;;;14.37;65.49;94702.13;4891664;29;20087;-81
2024/02/09 09:28:59;;;;;;;7.38;3.40;;;;;;;14.38;66.39;94708.13;4894403;28;20040;-81
2024/02/09 09:31:25;;;;;;;6.95;3.10;;;;;;;14.32;66.35;94704.19;4907695;29;20029;-80
2024/02/09 09:33:52;;;;;;;7.03;4.47;;;;;;;14.31;67.47;94706.06;4893002;29;20040;-81
2024/02/09 09:36:18;;;;;;;10.20;4.45;;;;;;;14.33;66.13;94716.22;4891242;29;20476;-80
2024/02/09 09:38:44;;;;;;;8.07;3.20;;;;;;;14.50;66.81;94705.50;4910820;28;20036;-80
2024/02/09 09:41:10;;;;;;;5.78;3.13;;;;;;;14.63;66.79;94708.13;4891151;28;20028;-80
2024/02/09 09:43:37;;;;;;;6.30;3.00;;;;;;;14.42;65.93;94683.56;4881045;29;20676;-78
2024/02/09 09:46:02;;;;;;;7.15;3.88;;;;;;;14.65;66.05;94708.53;4893183;28;20079;-79
2024/02/09 09:48:28;;;;;;;7.00;2.97;;;;;;;14.68;66.41;94705.25;4893771;28;20500;-78
2024/02/09 09:50:54;;;;;;;8.57;3.30;;;;;;;14.65;66.98;94717.19;4873277;28;20504;-79
2024/02/09 09:53:27;;;;;;;6.65;3.33;;;;;;;14.75;65.42;94710.69;4874429;28;20428;-79
2024/02/09 09:55:53;;;;;;;9.48;3.30;;;;;;;14.80;65.76;94707.84;4899121;28;20463;-81
2024/02/09 09:58:20;;;;;;;8.73;3.35;;;;;;;14.76;65.56;94707.00;4909757;29;20044;-79
2024/02/09 10:00:46;;;;;;;6.10;3.17;;;;;;;14.43;65.18;94706.03;4907707;29;20484;-79
2024/02/09 10:03:13;;;;;;;7.50;3.83;;;;;;;14.64;64.91;94715.66;4892151;29;20033;-78
2024/02/09 10:05:38;;;;;;;7.72;3.35;;;;;;;14.20;65.80;94703.09;4894551;29;20074;-87
2024/02/09 10:08:04;;;;;;;8.55;3.67;;;;;;;14.67;65.31;94730.69;4892780;29;20032;-85
2024/02/09 10:10:30;;;;;;;8.88;3.40;;;;;;;14.81;64.98;94725.09;4895032;29;20041;-84
2024/02/09 10:13:22;;;;;;;6.75;3.13;;;;;;;14.85;64.44;94715.47;4893234;29;20040;-89
2024/02/09 10:15:47;;;;;;;7.65;3.05;;;;;;;14.84;65.44;94721.03;4907167;28;20051;-84
2024/02/09 10:18:13;;;;;;;7.15;2.67;;;;;;;14.79;64.90;94717.56;4904141;29;20040;-86
2024/02/09 10:20:42;;;;;;;7.20;3.15;;;;;;;14.89;65.09;94720.81;4890461;29;20123;-89
2024/02/09 10:23:08;;;;;;;6.07;2.83;;;;;;;14.79;64.62;94714.94;4896397;29;20043;-85
2024/02/09 10:25:33;;;;;;;7.55;3.22;;;;;;;14.88;64.85;94714.81;4885310;28;20029;-85
2024/02/09 10:28:00;;;;;;;9.75;3.30;;;;;;;14.81;63.92;94719.09;4908492;29;20128;-84
2024/02/09 10:30:29;;;;;;;6.15;3.45;;;;;;;14.91;65.30;94726.50;4899385;29;20299;-86
2024/02/09 10:32:55;;;;;;;7.25;3.13;;;;;;;14.94;65.21;94723.19;4885972;29;20045;-86
2024/02/09 10:35:21;;;;;;;8.70;3.30;;;;;;;14.89;64.40;94723.44;4977029;28;20107;-88
2024/02/09 10:37:47;;;;;;;5.28;3.13;;;;;;;14.89;65.17;94721.59;4908667;29;20056;-86
2024/02/09 10:40:12;;;;;;;8.60;4.15;;;;;;;14.87;64.39;94715.16;4904938;29;20087;-85
2024/02/09 10:42:40;;;;;;;5.70;3.72;;;;;;;14.82;64.49;94712.75;4893440;29;20040;-84
2024/02/09 10:45:08;;;;;;;11.15;3.60;;;;;;;15.04;64.21;94721.97;4910526;29;20440;-82
2024/02/09 10:47:37;;;;;;;7.43;3.45;;;;;;;15.04;64.80;94727.97;4920214;29;20115;-83
2024/02/09 10:50:04;;;;;;;7.70;3.25;;;;;;;14.92;64.14;94725.41;4900859;28;20074;-87
2024/02/09 10:52:30;;;;;;;6.82;3.20;;;;;;;14.95;62.83;94719.50;4891718;29;20063;-86
2024/02/09 10:54:56;;;;;;;6.75;3.00;;;;;;;14.90;64.22;94724.97;4893898;28;20500;-85
2024/02/09 10:57:24;;;;;;;9.85;3.78;;;;;;;15.00;64.26;94715.88;4900185;28;20036;-78
2024/02/09 10:59:50;;;;;;;6.88;3.03;;;;;;;14.93;63.25;94722.44;4912380;29;20083;-80
2024/02/09 11:02:16;;;;;;;5.22;3.20;;;;;;;14.96;64.47;94724.41;4906644;29;20033;-78
2024/02/09 11:04:42;;;;;;;6.63;3.55;;;;;;;14.96;63.74;94721.03;4905519;29;20520;-80
2024/02/09 11:07:08;;;;;;;5.70;3.25;;;;;;;14.87;64.51;94713.28;4900104;29;20032;-80
2024/02/09 11:09:33;;;;;;;4.93;3.10;;;;;;;14.84;64.44;94707.94;4893906;29;20040;-78
2024/02/09 11:12:04;;;;;;;5.75;3.40;;;;;;;14.85;63.79;94693.75;4880604;28;20028;-80
2024/02/09 11:14:32;;;;;;;6.47;3.63;;;;;;;14.74;64.56;94703.97;4897446;28;20345;-80
2024/02/09 11:17:02;;;;;;;5.65;3.42;;;;;;;14.94;64.15;94702.25;4883001;29;20059;-86
2024/02/09 11:19:27;;;;;;;9.48;3.17;;;;;;;14.89;63.96;94705.88;4880790;29;20036;-85
2024/02/09 11:22:00;;;;;;;6.25;2.95;;;;;;;15.05;62.59;94703.31;4893455;29;20603;-86
2024/02/09 11:24:26;;;;;;;4.32;2.70;;;;;;;15.05;64.03;94682.34;4897482;29;20110;-86
2024/02/09 11:26:52;;;;;;;8.88;3.38;;;;;;;14.99;61.94;94699.38;4895045;29;20492;-87
2024/02/09 11:29:19;;;;;;;10.98;4.32;;;;;;;15.03;63.34;94691.63;4901485;28;20037;-87
2024/02/09 11:31:50;;;;;;;5.30;2.45;;;;;;;15.26;62.79;94692.63;4913534;29;20044;-85
2024/02/09 11:34:17;;;;;;;6.32;2.78;;;;;;;15.25;62.97;94688.50;4898969;29;20390;-85
2024/02/09 11:36:43;;;;;;;5.43;2.50;;;;;;;15.11;64.01;94681.00;4894703;29;20028;-87
2024/02/09 11:39:10;;;;;;;10.55;3.03;;;;;;;15.00;62.75;94684.44;4907047;29;20075;-86
2024/02/09 11:41:36;;;;;;;7.60;3.42;;;;;;;15.12;62.64;94690.38;4891190;29;20032;-85
2024/02/09 11:44:01;;;;;;;5.97;2.53;;;;;;;15.03;61.76;94686.38;4888437;29;20048;-87
2024/02/09 11:46:27;;;;;;;4.53;2.13;;;;;;;15.19;62.54;94670.72;4905246;28;20036;-86
2024/02/09 11:48:52;;;;;;;5.55;2.60;;;;;;;15.26;63.58;94684.00;4905172;29;20312;-87
2024/02/09 11:51:20;;;;;;;5.90;2.50;;;;;;;15.06;61.73;94672.63;4887745;29;20496;-89
2024/02/09 11:53:51;;;;;;;7.10;3.65;;;;;;;15.17;62.92;94666.56;4895886;29;20048;-86
2024/02/09 11:56:20;;;;;;;5.20;2.75;;;;;;;15.26;62.06;94668.28;4889742;28;20026;-83
2024/02/09 11:58:49;;;;;;;7.15;2.95;;;;;;;15.31;62.59;94673.28;4912254;29;20385;-87
2024/02/09 12:01:20;;;;;;;6.13;2.45;;;;;;;15.42;62.09;94663.81;4891045;28;20119;-84
2024/02/09 12:03:46;;;;;;;5.28;2.50;;;;;;;15.39;62.62;94669.72;4892224;29;20045;-85
2024/02/09 12:06:11;;;;;;;5.82;2.70;;;;;;;15.39;62.00;94669.72;4889233;28;20035;-85
2024/02/09 12:08:37;;;;;;;5.10;3.47;;;;;;;15.35;61.44;94664.41;4893679;29;20127;-84
2024/02/09 12:11:03;;;;;;;6.03;2.45;;;;;;;15.40;62.55;94666.00;4894008;28;20532;-86
2024/02/09 12:13:29;;;;;;;6.07;2.95;;;;;;;15.34;61.76;94665.50;4894551;29;20526;-88
2024/02/09 12:15:56;;;;;;;6.20;2.67;;;;;;;15.35;61.85;94661.00;4875359;29;20045;-88
2024/02/09 12:18:23;;;;;;;9.85;3.00;;;;;;;15.34;62.40;94662.13;4873141;29;20212;-85
2024/02/09 12:20:48;;;;;;;6.15;2.80;;;;;;;15.12;61.72;94650.31;4894063;29;20481;-85
2024/02/09 12:23:14;;;;;;;6.13;2.70;;;;;;;15.21;61.92;94653.53;4896560;29;20112;-84
2024/02/09 12:25:40;;;;;;;7.57;3.20;;;;;;;15.18;61.39;94654.19;4871950;29;20079;-85
2024/02/09 12:28:09;;;;;;;7.65;3.42;;;;;;;15.02;61.29;94654.19;4959133;28;20503;-88
2024/02/09 12:30:45;;;;;;;5.10;2.75;;;;;;;15.20;62.28;94652.03;4902581;28;20147;-83
2024/02/09 12:33:11;;;;;;;5.68;2.67;;;;;;;15.14;61.21;94648.88;4866403;29;20050;-82
2024/02/09 12:35:41;;;;;;;5.50;2.80;;;;;;;15.07;61.64;94648.69;4887531;29;20044;-84
2024/02/09 12:38:07;;;;;;;8.38;3.30;;;;;;;15.21;61.40;94653.53;4883594;29;20412;-85
2024/02/09 12:40:33;;;;;;;5.63;3.05;;;;;;;15.07;62.14;94648.69;4973826;28;20115;-83
2024/02/09 12:42:58;;;;;;;5.28;2.63;;;;;;;15.01;62.55;94650.06;4891796;29;20117;-86
2024/02/09 12:45:26;;;;;;;6.85;2.95;;;;;;;14.96;61.62;94639.81;4895043;29;20143;-84
2024/02/09 12:47:52;;;;;;;6.22;2.55;;;;;;;14.79;61.47;94646.84;4894925;29;20134;-85
2024/02/09 12:50:20;;;;;;;4.93;2.95;;;;;;;14.56;62.36;94640.56;4891058;29;20208;-86
2024/02/09 12:52:49;;;;;;;5.38;3.13;;;;;;;14.65;61.40;94658.78;4894990;29;20032;-84
2024/02/09 12:55:17;;;;;;;7.35;2.53;;;;;;;14.96;61.26;94648.41;4878871;29;20139;-85
2024/02/09 12:57:43;;;;;;;7.35;2.75;;;;;;;14.99;61.93;94649.59;4909186;28;20362;-88
2024/02/09 13:00:09;;;;;;;7.47;3.42;;;;;;;15.01;61.44;94639.56;4900727;29;20043;-85
2024/02/09 13:02:34;;;;;;;7.88;3.05;;;;;;;15.14;61.04;94654.13;4872396;29;20029;-84
2024/02/09 13:05:00;;;;;;;6.80;2.92;;;;;;;15.04;61.58;94640.75;4874639;29;20031;-83
2024/02/09 13:07:27;;;;;;;6.22;2.95;;;;;;;15.08;61.41;94646.81;4908540;29;20028;-86
2024/02/09 13:09:55;;;;;;;7.40;2.70;;;;;;;15.15;59.88;94645.16;4907706;29;20040;-81
2024/02/09 13:12:21;;;;;;;6.00;2.53;;;;;;;15.14;60.50;94643.63;4909508;29;20444;-82
2024/02/09 13:14:47;;;;;;;8.93;3.25;;;;;;;15.07;60.11;94640.84;4876801;29;20063;-85
2024/02/09 13:17:13;;;;;;;8.13;3.10;;;;;;;15.13;60.42;94642.13;4922248;29;20501;-84